Time;durP1;ratioP1;P1;durP2;ratioP2;P2;SDS_P1;SDS_P2;PMS_P1;PMS_P2;Temp;Humidity;BMP_temperature;BMP_pressure;BME280_temperature;BME280_humidity;BME280_pressure;Samples;Min_cycle;Max_cycle;Signal;HPM_P1;HPM_P2
2020/12/27 00:00:34;;;;;;;26.75;10.85;;;5.70;99.90;;;;;;5070664;28;20389;-48
2020/12/27 00:03:00;;;;;;;29.37;9.10;;;5.70;99.90;;;;;;5070936;28;20413;-50
2020/12/27 00:05:26;;;;;;;30.83;9.68;;;5.70;99.90;;;;;;5070607;28;20390;-48
2020/12/27 00:07:52;;;;;;;29.15;10.13;;;5.70;99.90;;;;;;5070908;28;20393;-49
2020/12/27 00:10:18;;;;;;;29.17;11.10;;;5.70;99.90;;;;;;5064206;28;20386;-48
2020/12/27 00:12:45;;;;;;;28.52;10.82;;;5.70;99.90;;;;;;5071470;28;20402;-49
2020/12/27 00:15:11;;;;;;;29.33;11.70;;;5.70;99.90;;;;;;5070881;28;20420;-50
2020/12/27 00:17:37;;;;;;;29.20;11.38;;;5.70;99.90;;;;;;5070796;28;20410;-50
2020/12/27 00:20:05;;;;;;;25.20;11.50;;;5.70;99.90;;;;;;5070666;28;20378;-48
2020/12/27 00:22:31;;;;;;;30.57;11.73;;;5.80;99.90;;;;;;5070973;28;20382;-49
2020/12/27 00:24:57;;;;;;;25.75;10.07;;;5.80;99.90;;;;;;5070421;28;20916;-49
2020/12/27 00:27:23;;;;;;;33.60;11.70;;;5.80;99.90;;;;;;5070822;28;20403;-49
2020/12/27 00:29:49;;;;;;;30.48;11.98;;;5.80;99.90;;;;;;5069606;28;20382;-49
2020/12/27 00:32:16;;;;;;;34.72;11.95;;;5.80;99.90;;;;;;5070666;28;20390;-49
2020/12/27 00:34:42;;;;;;;33.10;11.80;;;5.80;99.90;;;;;;5070055;28;20417;-51
2020/12/27 00:37:08;;;;;;;30.63;11.80;;;5.80;99.90;;;;;;5069059;28;20976;-49
2020/12/27 00:39:35;;;;;;;35.53;12.18;;;5.80;99.90;;;;;;5071060;28;20398;-49
2020/12/27 00:42:01;;;;;;;41.08;13.60;;;5.90;99.90;;;;;;5069380;28;20409;-50
2020/12/27 00:44:27;;;;;;;34.77;13.33;;;5.90;99.90;;;;;;5069234;28;20409;-49
2020/12/27 00:46:54;;;;;;;37.97;13.40;;;5.90;99.90;;;;;;5070642;28;20453;-51
2020/12/27 00:49:20;;;;;;;38.43;13.20;;;5.90;99.90;;;;;;5070395;28;20390;-49
2020/12/27 00:51:46;;;;;;;40.05;13.30;;;5.90;99.90;;;;;;5070083;28;20890;-50
2020/12/27 00:54:12;;;;;;;35.63;11.47;;;5.90;99.90;;;;;;5070331;28;20386;-49
2020/12/27 00:56:38;;;;;;;33.95;11.73;;;5.90;99.90;;;;;;5070968;28;20462;-50
2020/12/27 00:59:05;;;;;;;32.80;12.90;;;5.90;99.90;;;;;;5064310;28;20932;-48
2020/12/27 01:01:31;;;;;;;30.20;9.65;;;5.90;99.90;;;;;;5052142;28;20167;-47
2020/12/27 01:03:58;;;;;;;35.83;10.60;;;5.90;99.90;;;;;;5063070;28;20193;-48
2020/12/27 01:06:27;;;;;;;42.42;10.90;;;5.90;99.90;;;;;;5071254;28;20194;-48
2020/12/27 01:08:54;;;;;;;37.78;10.82;;;5.90;99.90;;;;;;5071106;28;20178;-50
2020/12/27 01:11:20;;;;;;;35.80;11.05;;;5.90;99.90;;;;;;5069393;28;20227;-51
2020/12/27 01:13:46;;;;;;;32.67;10.82;;;5.90;99.90;;;;;;5071406;28;20174;-51
2020/12/27 01:16:13;;;;;;;25.85;10.52;;;5.90;99.90;;;;;;5070618;28;20713;-50
2020/12/27 01:18:39;;;;;;;;;;;5.90;99.90;;;;;;5072545;28;20040;-50
2020/12/27 01:21:05;;;;;;;;;;;5.90;99.90;;;;;;5071645;28;19904;-52
2020/12/27 01:23:31;;;;;;;;;;;5.90;99.90;;;;;;5072450;28;19915;-50
2020/12/27 01:25:57;;;;;;;;;;;6.00;99.90;;;;;;5072197;28;19909;-49
2020/12/27 01:28:23;;;;;;;;;;;5.90;99.90;;;;;;5071312;28;19935;-48
2020/12/27 01:30:49;;;;;;;;;;;6.00;99.90;;;;;;5076062;28;20349;-47
2020/12/27 01:33:15;;;;;;;;;;;5.90;99.90;;;;;;5076055;28;19916;-48
2020/12/27 01:35:44;;;;;;;;;;;6.00;99.90;;;;;;5075403;28;19919;-48
2020/12/27 01:38:11;;;;;;;;;;;6.00;99.90;;;;;;5075303;28;19928;-50
2020/12/27 01:40:36;;;;;;;;;;;5.90;99.90;;;;;;5074021;28;19912;-50
2020/12/27 01:43:02;;;;;;;;;;;6.00;99.90;;;;;;5075704;28;19908;-48
2020/12/27 01:45:28;;;;;;;;;;;5.90;99.90;;;;;;5074624;28;19912;-49
2020/12/27 01:47:54;;;;;;;;;;;5.90;99.90;;;;;;5062662;28;19917;-47
2020/12/27 01:50:20;;;;;;;;;;;5.90;99.90;;;;;;5073753;28;19908;-48
2020/12/27 01:52:47;;;;;;;;;;;5.90;99.90;;;;;;5075401;28;20015;-48
2020/12/27 01:55:13;;;;;;;;;;;6.00;99.90;;;;;;5075446;28;19912;-48
2020/12/27 01:57:48;;;;;;;;;;;5.90;99.90;;;;;;5075267;28;19924;-48
2020/12/27 02:00:13;;;;;;;;;;;6.00;99.90;;;;;;5075322;28;20353;-48
2020/12/27 02:02:39;;;;;;;;;;;5.90;99.90;;;;;;5075069;28;19919;-49
2020/12/27 02:05:05;;;;;;;;;;;6.00;99.90;;;;;;5074432;28;19919;-47
2020/12/27 02:07:31;;;;;;;;;;;6.00;99.90;;;;;;5075061;28;19995;-49
2020/12/27 02:09:58;;;;;;;;;;;5.90;99.90;;;;;;5074621;28;19952;-49
2020/12/27 02:12:24;;;;;;;;;;;5.90;99.90;;;;;;5073320;28;19935;-49
2020/12/27 02:14:51;;;;;;;;;;;5.90;99.90;;;;;;5090507;28;20304;-49
2020/12/27 02:17:17;;;;;;;;;;;6.00;99.90;;;;;;5074285;28;19916;-48
2020/12/27 02:19:43;;;;;;;;;;;6.00;99.90;;;;;;5075134;28;19916;-49
2020/12/27 02:22:09;;;;;;;;;;;6.00;99.90;;;;;;5074269;28;19956;-49
2020/12/27 02:24:35;;;;;;;;;;;5.90;99.90;;;;;;5074326;28;19912;-49
2020/12/27 02:27:01;;;;;;;;;;;5.90;99.90;;;;;;5075458;28;19908;-49
2020/12/27 02:29:27;;;;;;;;;;;5.90;99.90;;;;;;5074967;28;19911;-49
2020/12/27 02:31:53;;;;;;;;;;;5.90;99.90;;;;;;5075261;28;19912;-50
2020/12/27 02:34:19;;;;;;;;;;;5.90;99.90;;;;;;5073954;28;19913;-51
2020/12/27 02:36:45;;;;;;;;;;;5.80;99.90;;;;;;5074789;28;19908;-50
2020/12/27 02:39:11;;;;;;;;;;;5.90;99.90;;;;;;5064024;28;19963;-53
2020/12/27 02:41:38;;;;;;;;;;;5.90;99.90;;;;;;5054519;28;19908;-54
2020/12/27 02:44:04;;;;;;;;;;;5.90;99.90;;;;;;5070413;28;20253;-56
2020/12/27 02:46:30;;;;;;;24.63;10.50;;;5.80;99.90;;;;;;5073969;28;20188;-56
2020/12/27 02:48:56;;;;;;;36.60;13.88;;;5.80;99.90;;;;;;5072780;28;20382;-55
2020/12/27 02:51:23;;;;;;;35.40;13.70;;;5.80;99.90;;;;;;5070685;28;20391;-54
2020/12/27 02:53:49;;;;;;;32.95;12.60;;;5.80;99.90;;;;;;5072743;28;20390;-50
2020/12/27 02:56:19;;;;;;;35.17;14.13;;;5.80;99.90;;;;;;5073034;28;20382;-51
2020/12/27 02:58:45;;;;;;;33.65;13.43;;;5.80;99.90;;;;;;5072075;28;20414;-55
2020/12/27 03:01:12;;;;;;;30.63;13.15;;;6.10;99.90;;;;;;5071258;28;20381;-57
2020/12/27 03:03:38;;;;;;;33.75;13.43;;;6.00;99.90;;;;;;5072127;28;20406;-56
2020/12/27 03:06:04;;;;;;;28.25;11.43;;;6.10;99.90;;;;;;5071917;28;20383;-55
2020/12/27 03:08:31;;;;;;;24.58;10.70;;;6.10;99.90;;;;;;5071903;28;20401;-56
2020/12/27 03:10:57;;;;;;;19.73;8.02;;;6.10;99.90;;;;;;5073988;28;20185;-57
2020/12/27 03:13:23;;;;;;;23.67;9.73;;;6.10;99.90;;;;;;5064001;28;20202;-57
2020/12/27 03:15:54;;;;;;;23.10;9.48;;;6.10;99.90;;;;;;5053686;28;20527;-57
2020/12/27 03:18:21;;;;;;;18.98;7.82;;;6.10;99.90;;;;;;5053401;28;20694;-57
2020/12/27 03:20:48;;;;;;;26.52;11.63;;;6.10;99.90;;;;;;5052223;28;20376;-55
2020/12/27 03:23:15;;;;;;;23.77;9.50;;;6.10;99.90;;;;;;5061662;28;20193;-55
2020/12/27 03:25:42;;;;;;;27.58;11.70;;;6.10;99.90;;;;;;5072548;28;20377;-51
2020/12/27 03:28:12;;;;;;;29.20;11.32;;;6.10;99.90;;;;;;5072289;28;20731;-51
2020/12/27 03:30:38;;;;;;;25.15;11.30;;;6.10;99.90;;;;;;5072298;28;20378;-54
2020/12/27 03:33:04;;;;;;;21.38;10.57;;;6.20;99.90;;;;;;5073442;28;20194;-54
2020/12/27 03:35:30;;;;;;;26.90;9.82;;;6.10;99.90;;;;;;5071573;28;20579;-53
2020/12/27 03:37:56;;;;;;;24.17;10.02;;;6.10;99.90;;;;;;5071294;28;20428;-55
2020/12/27 03:40:22;;;;;;;33.78;12.85;;;6.20;99.90;;;;;;5071495;28;20389;-55
2020/12/27 03:42:49;;;;;;;35.95;13.30;;;6.10;99.90;;;;;;5071663;28;20881;-55
2020/12/27 03:45:16;;;;;;;25.55;11.43;;;6.20;99.90;;;;;;5072088;28;20718;-55
2020/12/27 03:47:42;;;;;;;26.55;11.32;;;6.10;99.90;;;;;;5072348;28;20386;-55
2020/12/27 03:50:08;;;;;;;27.27;11.35;;;6.20;99.90;;;;;;5071286;28;20743;-55
2020/12/27 03:52:34;;;;;;;24.05;10.73;;;6.20;99.90;;;;;;5070915;28;20374;-55
2020/12/27 03:55:00;;;;;;;28.10;10.68;;;6.30;99.90;;;;;;5072265;28;20412;-55
2020/12/27 03:57:27;;;;;;;36.92;10.93;;;6.30;99.90;;;;;;5070928;28;20405;-54
2020/12/27 03:59:53;;;;;;;25.73;10.85;;;6.30;99.90;;;;;;5071514;28;20378;-53
2020/12/27 04:02:19;;;;;;;25.73;11.03;;;6.30;99.90;;;;;;5070972;28;20402;-52
2020/12/27 04:04:45;;;;;;;31.05;13.15;;;6.30;99.90;;;;;;5070614;28;20402;-51
2020/12/27 04:07:11;;;;;;;26.05;10.95;;;6.30;99.90;;;;;;5070911;28;20401;-50
2020/12/27 04:09:37;;;;;;;28.65;11.57;;;6.20;99.90;;;;;;5069577;28;20382;-56
2020/12/27 04:12:03;;;;;;;35.75;13.85;;;6.10;99.90;;;;;;5071178;28;20402;-52
2020/12/27 04:14:30;;;;;;;30.60;12.77;;;6.20;99.90;;;;;;5070940;28;20489;-55
2020/12/27 04:16:56;;;;;;;36.90;13.05;;;6.10;99.90;;;;;;5070155;28;20401;-55
2020/12/27 04:19:22;;;;;;;30.13;12.88;;;6.20;99.90;;;;;;5071025;28;20425;-56
2020/12/27 04:21:48;;;;;;;28.73;11.38;;;6.20;99.90;;;;;;5071596;28;20170;-54
2020/12/27 04:24:14;;;;;;;37.28;12.10;;;6.20;99.90;;;;;;5071766;28;20194;-54
2020/12/27 04:26:40;;;;;;;31.85;11.30;;;6.20;99.90;;;;;;5072350;28;20186;-55
2020/12/27 04:29:06;;;;;;;;;;;6.20;99.90;;;;;;5072320;28;20043;-52
2020/12/27 04:31:32;;;;;;;;;;;6.20;99.90;;;;;;5071949;28;20361;-53
2020/12/27 04:33:58;;;;;;;;;;;6.10;99.90;;;;;;5071202;28;19934;-52
2020/12/27 04:36:24;;;;;;;;;;;6.20;99.90;;;;;;5072039;28;19909;-53
2020/12/27 04:38:50;;;;;;;;;;;6.10;99.90;;;;;;5072046;28;19927;-57
2020/12/27 04:41:17;;;;;;;40.42;15.75;;;6.10;99.90;;;;;;5069938;28;20390;-57
2020/12/27 04:43:44;;;;;;;35.60;15.18;;;6.10;99.90;;;;;;5070619;28;20390;-55
2020/12/27 04:46:11;;;;;;;31.80;12.95;;;6.10;99.90;;;;;;5070683;28;20389;-57
2020/12/27 04:48:38;;;;;;;39.13;15.20;;;6.10;99.90;;;;;;5061168;28;20382;-57
2020/12/27 04:51:06;;;;;;;38.85;16.33;;;6.00;99.90;;;;;;5070383;28;20874;-57
2020/12/27 04:53:35;;;;;;;35.80;14.63;;;6.00;99.90;;;;;;5069857;28;20390;-56
2020/12/27 04:56:02;;;;;;;25.27;11.63;;;5.90;99.90;;;;;;5071572;28;20186;-57
2020/12/27 04:58:28;;;;;;;;;;;6.00;99.90;;;;;;5071723;28;20052;-57
2020/12/27 05:00:58;;;;;;;31.92;14.05;;;6.00;99.90;;;;;;5070110;28;20463;-58
2020/12/27 05:03:24;;;;;;;;;;;6.00;99.90;;;;;;5072080;28;20389;-55
2020/12/27 05:05:52;;;;;;;38.17;16.43;;;5.90;99.90;;;;;;5069131;28;20398;-57
2020/12/27 05:08:19;;;;;;;35.75;15.80;;;6.00;99.90;;;;;;5069750;28;20747;-57
2020/12/27 05:10:45;;;;;;;35.58;15.13;;;6.00;99.90;;;;;;5070335;28;20386;-58
2020/12/27 05:13:11;;;;;;;;;;;6.10;99.90;;;;;;5072165;28;20043;-57
2020/12/27 05:15:38;;;;;;;;;;;6.00;99.90;;;;;;5072285;28;19909;-58
2020/12/27 05:18:05;;;;;;;34.45;15.07;;;5.90;99.90;;;;;;5069880;28;20419;-59
2020/12/27 05:20:32;;;;;;;36.77;14.77;;;5.90;99.90;;;;;;5069651;28;20386;-58
2020/12/27 05:23:04;;;;;;;22.58;10.48;;;6.00;99.90;;;;;;5069937;28;20397;-59
2020/12/27 05:25:38;;;;;;;24.08;11.27;;;5.90;99.90;;;;;;5068823;28;20770;-59
2020/12/27 05:28:07;;;;;;;32.42;11.48;;;5.90;99.90;;;;;;5070184;28;20769;-59
2020/12/27 05:30:33;;;;;;;25.50;9.77;;;5.90;99.90;;;;;;5070444;28;20859;-59
2020/12/27 05:32:59;;;;;;;26.27;11.15;;;5.90;99.90;;;;;;5068770;28;20724;-59
2020/12/27 05:35:25;;;;;;;28.10;10.97;;;5.80;99.90;;;;;;5069370;28;20394;-59
2020/12/27 05:37:52;;;;;;;27.27;10.13;;;5.80;99.90;;;;;;5069902;28;20424;-59
2020/12/27 05:40:18;;;;;;;25.93;11.03;;;5.80;99.90;;;;;;5069814;28;20386;-59
2020/12/27 05:42:45;;;;;;;26.92;11.45;;;5.80;99.90;;;;;;5068698;28;20386;-60
2020/12/27 05:45:18;;;;;;;25.73;11.30;;;5.80;99.90;;;;;;5070189;28;20401;-59
2020/12/27 05:47:44;;;;;;;26.05;11.30;;;5.70;99.90;;;;;;5070269;28;20383;-60
2020/12/27 05:50:15;;;;;;;28.20;10.82;;;5.70;99.90;;;;;;5068583;28;20443;-59
2020/12/27 05:52:48;;;;;;;24.85;9.93;;;5.70;99.90;;;;;;5069607;28;20394;-60
2020/12/27 05:55:19;;;;;;;24.13;10.03;;;5.80;99.90;;;;;;5068741;28;20390;-60
2020/12/27 05:57:54;;;;;;;28.80;11.80;;;5.70;99.90;;;;;;5069325;28;20382;-60
2020/12/27 06:00:24;;;;;;;34.53;12.07;;;5.70;99.90;;;;;;5065127;28;20390;-60
2020/12/27 06:03:01;;;;;;;29.02;12.50;;;5.80;99.90;;;;;;5069592;28;20393;-60
2020/12/27 06:05:53;;;;;;;28.17;11.45;;;5.70;99.90;;;;;;5068651;28;20413;-60
2020/12/27 06:08:28;;;;;;;28.67;11.93;;;5.70;99.90;;;;;;5065269;28;20397;-60
2020/12/27 06:10:59;;;;;;;27.92;10.75;;;5.80;99.90;;;;;;5069716;28;20405;-60
2020/12/27 06:13:44;;;;;;;31.20;11.45;;;5.80;99.90;;;;;;5069109;28;20375;-61
2020/12/27 06:16:12;;;;;;;30.10;11.80;;;5.70;99.90;;;;;;5070961;28;20393;-60
2020/12/27 06:18:39;;;;;;;29.65;10.95;;;5.70;99.90;;;;;;5073181;28;20425;-60
2020/12/27 06:21:09;;;;;;;28.08;10.10;;;5.70;99.90;;;;;;5073367;28;20711;-60
2020/12/27 06:23:38;;;;;;;26.60;10.45;;;5.70;99.90;;;;;;5072496;28;20390;-61
2020/12/27 06:26:06;;;;;;;26.83;9.70;;;5.70;99.90;;;;;;5073682;28;20371;-60
2020/12/27 06:28:32;;;;;;;20.45;8.73;;;5.70;99.90;;;;;;5072361;28;20386;-60
2020/12/27 06:31:04;;;;;;;27.83;9.70;;;5.60;99.90;;;;;;5072841;28;20426;-61
2020/12/27 06:33:38;;;;;;;20.52;8.52;;;5.70;99.90;;;;;;5056174;28;20395;-61
2020/12/27 06:36:04;;;;;;;19.83;7.22;;;5.70;99.90;;;;;;5072805;28;20871;-61
2020/12/27 06:38:32;;;;;;;17.98;7.47;;;5.60;99.90;;;;;;5072316;28;20409;-61
2020/12/27 06:41:08;;;;;;;21.70;8.07;;;5.60;99.90;;;;;;5072135;28;20382;-61
2020/12/27 06:43:44;;;;;;;19.98;6.90;;;5.50;99.90;;;;;;5072532;28;20386;-62
2020/12/27 06:46:26;;;;;;;21.48;6.65;;;5.50;99.90;;;;;;5072692;28;20386;-61
2020/12/27 06:49:13;;;;;;;22.73;8.13;;;5.50;99.90;;;;;;5072817;28;20394;-61
2020/12/27 06:51:41;;;;;;;20.75;5.10;;;6.40;99.90;;;;;;5087685;28;20627;-62
2020/12/27 06:54:08;;;;;;;10.50;4.47;;;6.60;99.90;;;;;;5072963;28;20198;-62
2020/12/27 06:56:42;;;;;;;10.40;3.70;;;6.50;99.90;;;;;;5071824;28;20178;-63
2020/12/27 06:59:08;;;;;;;17.08;5.28;;;6.50;99.90;;;;;;5073722;28;20264;-63
2020/12/27 07:01:34;;;;;;;17.98;5.32;;;6.50;99.90;;;;;;5073466;28;20190;-63
2020/12/27 07:04:13;;;;;;;18.95;5.57;;;6.50;99.90;;;;;;5071690;28;20189;-63
2020/12/27 07:06:41;;;;;;;15.00;4.13;;;6.40;99.90;;;;;;5072190;28;21045;-63
2020/12/27 07:09:07;;;;;;;20.10;5.72;;;6.20;99.90;;;;;;5073576;28;20192;-62
2020/12/27 07:11:33;;;;;;;16.35;5.00;;;6.20;99.90;;;;;;5072259;28;20544;-63
2020/12/27 07:14:00;;;;;;;13.15;4.72;;;6.20;99.90;;;;;;5073272;28;20186;-62
2020/12/27 07:16:40;;;;;;;13.32;4.30;;;6.20;99.90;;;;;;5072264;28;20205;-63
2020/12/27 07:19:06;;;;;;;11.88;4.20;;;6.20;99.90;;;;;;5073330;28;20551;-62
2020/12/27 07:21:35;;;;;;;10.43;4.15;;;6.10;99.90;;;;;;5073157;28;20503;-63
2020/12/27 07:24:11;;;;;;;16.08;3.60;;;6.10;99.90;;;;;;5072545;28;20525;-62
2020/12/27 07:26:47;;;;;;;11.65;3.50;;;6.10;99.90;;;;;;5073385;28;20532;-63
2020/12/27 07:29:18;;;;;;;7.85;3.33;;;6.20;99.90;;;;;;5073395;28;20174;-63
2020/12/27 07:31:45;;;;;;;10.20;3.70;;;6.10;99.90;;;;;;5073089;28;20178;-63
2020/12/27 07:34:12;;;;;;;12.40;4.43;;;6.10;99.90;;;;;;5071568;28;20178;-63
2020/12/27 07:36:38;;;;;;;19.77;5.10;;;6.10;99.90;;;;;;5071988;28;20177;-63
2020/12/27 07:39:09;;;;;;;23.50;5.88;;;6.10;99.90;;;;;;5063807;28;20705;-63
2020/12/27 07:41:40;;;;;;;18.67;5.88;;;6.20;99.90;;;;;;5057570;28;20189;-64
2020/12/27 07:44:13;;;;;;;24.92;5.80;;;6.20;99.90;;;;;;5073068;28;20189;-63
2020/12/27 07:46:39;;;;;;;22.60;5.32;;;6.20;99.90;;;;;;5072308;28;20181;-63
2020/12/27 07:49:09;;;;;;;20.02;5.78;;;6.30;99.90;;;;;;5071568;28;20185;-63
2020/12/27 07:51:35;;;;;;;15.95;5.82;;;6.30;99.90;;;;;;5071352;28;20178;-63
2020/12/27 07:54:05;;;;;;;22.35;6.90;;;6.30;99.90;;;;;;5072715;28;20188;-63
2020/12/27 07:56:32;;;;;;;23.50;6.55;;;6.30;99.90;;;;;;5063157;28;20178;-69
2020/12/27 07:58:59;;;;;;;24.60;7.60;;;6.30;99.90;;;;;;5071758;28;20209;-63
2020/12/27 08:01:32;;;;;;;34.85;9.35;;;6.30;99.90;;;;;;5072535;28;20197;-63
2020/12/27 08:04:00;;;;;;;32.95;10.63;;;6.30;99.90;;;;;;5070987;28;22683;-63
2020/12/27 08:06:27;;;;;;;24.30;10.38;;;6.40;99.90;;;;;;5071924;28;20178;-64
2020/12/27 08:09:03;;;;;;;20.15;9.18;;;6.40;99.90;;;;;;5072472;28;20182;-64
2020/12/27 08:11:30;;;;;;;33.67;9.65;;;6.40;99.90;;;;;;5071662;28;20173;-64
2020/12/27 08:13:59;;;;;;;19.70;8.68;;;6.40;99.90;;;;;;5071552;28;20180;-64
2020/12/27 08:16:25;;;;;;;34.05;9.02;;;6.40;99.90;;;;;;5071543;28;20217;-63
2020/12/27 08:19:13;;;;;;;24.50;8.13;;;6.40;99.90;;;;;;5071370;28;20677;-61
2020/12/27 08:21:40;;;;;;;27.75;7.97;;;6.40;99.90;;;;;;5066254;28;20167;-61
2020/12/27 08:24:08;;;;;;;33.70;8.10;;;6.40;99.90;;;;;;5072232;28;20170;-60
2020/12/27 08:26:35;;;;;;;26.60;7.38;;;6.40;99.90;;;;;;5072278;28;20499;-60
2020/12/27 08:29:10;;;;;;;23.05;7.68;;;6.40;99.90;;;;;;5071171;28;20193;-59
2020/12/27 08:31:36;;;;;;;26.45;8.23;;;6.30;99.90;;;;;;5072107;28;20189;-59
2020/12/27 08:34:13;;;;;;;28.13;7.93;;;6.30;99.90;;;;;;5070171;28;20567;-60
2020/12/27 08:36:49;;;;;;;31.58;8.00;;;6.30;99.90;;;;;;5071124;28;20205;-61
2020/12/27 08:39:32;;;;;;;25.40;8.00;;;6.30;99.90;;;;;;5070658;28;20201;-63
2020/12/27 08:42:10;;;;;;;27.55;6.75;;;6.30;99.90;;;;;;5071107;28;20162;-65
2020/12/27 08:44:52;;;;;;;27.27;7.53;;;6.20;99.90;;;;;;5070318;28;20170;-63
2020/12/27 08:47:24;;;;;;;20.27;6.75;;;6.20;99.90;;;;;;5052249;28;20185;-66
2020/12/27 08:49:55;;;;;;;12.65;6.13;;;6.20;99.90;;;;;;5071268;28;20174;-66
2020/12/27 08:52:23;;;;;;;25.55;6.32;;;6.20;99.90;;;;;;5070497;28;20150;-64
2020/12/27 08:54:52;;;;;;;24.35;7.00;;;6.20;99.90;;;;;;5070294;28;20189;-65
2020/12/27 08:57:18;;;;;;;16.02;5.90;;;6.20;99.90;;;;;;5070583;28;20166;-65
2020/12/27 09:00:18;;;;;;;17.33;6.47;;;6.10;99.90;;;;;;5070970;28;20206;-65
2020/12/27 09:02:56;;;;;;;17.77;6.97;;;6.10;99.90;;;;;;5066069;28;20170;-66
2020/12/27 09:05:28;;;;;;;19.27;6.43;;;6.10;99.90;;;;;;5069043;28;20181;-67
2020/12/27 09:07:54;;;;;;;25.55;7.43;;;6.10;99.90;;;;;;5066714;28;20166;-66
2020/12/27 09:10:22;;;;;;;19.13;7.35;;;6.00;99.90;;;;;;5066159;28;20178;-66
2020/12/27 09:13:04;;;;;;;27.67;8.05;;;6.00;99.90;;;;;;5071159;28;20181;-65
2020/12/27 09:15:51;;;;;;;34.78;8.70;;;6.00;99.90;;;;;;5071496;28;20642;-65
2020/12/27 09:18:26;;;;;;;35.75;8.48;;;6.00;99.90;;;;;;5068916;28;20201;-65
2020/12/27 09:20:57;;;;;;;22.25;8.00;;;6.00;99.90;;;;;;5071398;28;20521;-65
2020/12/27 09:23:23;;;;;;;26.15;8.63;;;6.00;99.90;;;;;;5069780;28;20162;-66
2020/12/27 09:26:08;;;;;;;26.45;10.20;;;6.00;99.90;;;;;;5071272;28;20169;-66
2020/12/27 09:28:36;;;;;;;31.58;8.43;;;6.00;99.90;;;;;;5067876;28;20162;-65
2020/12/27 09:31:04;;;;;;;21.85;7.85;;;6.00;99.90;;;;;;5071565;28;20173;-66
2020/12/27 09:33:35;;;;;;;23.63;7.28;;;6.00;99.90;;;;;;5071658;28;20174;-66
2020/12/27 09:36:02;;;;;;;16.17;7.25;;;5.90;99.90;;;;;;5067346;28;20193;-65
2020/12/27 09:38:32;;;;;;;28.13;7.15;;;5.90;99.90;;;;;;5069228;28;20190;-64
2020/12/27 09:41:13;;;;;;;20.55;6.93;;;5.90;99.90;;;;;;5067066;28;20183;-66
2020/12/27 09:43:52;;;;;;;18.45;6.40;;;5.80;99.90;;;;;;5069438;28;20174;-70
2020/12/27 09:46:55;;;;;;;24.67;7.20;;;5.80;99.90;;;;;;5066249;28;20174;-65
2020/12/27 09:49:26;;;;;;;18.30;6.28;;;5.80;99.90;;;;;;5084030;28;20181;-65
2020/12/27 09:52:13;;;;;;;20.45;7.13;;;5.80;99.90;;;;;;5073892;28;20181;-65
2020/12/27 09:54:40;;;;;;;32.17;7.78;;;5.80;99.90;;;;;;5073932;28;20177;-65
2020/12/27 09:57:10;;;;;;;23.83;6.78;;;5.80;99.90;;;;;;5074364;28;20181;-65
2020/12/27 09:59:37;;;;;;;23.60;7.38;;;5.70;99.90;;;;;;5074331;28;20701;-65
2020/12/27 10:02:03;;;;;;;21.73;7.18;;;5.70;99.90;;;;;;5074841;28;20173;-65
2020/12/27 10:04:30;;;;;;;29.45;6.57;;;5.70;99.90;;;;;;5073610;28;20186;-66
2020/12/27 10:06:56;;;;;;;14.05;4.65;;;5.70;99.90;;;;;;5072724;28;20174;-65
2020/12/27 10:09:22;;;;;;;17.65;7.03;;;5.70;99.90;;;;;;5064029;28;20555;-66
2020/12/27 10:11:48;;;;;;;21.38;7.35;;;5.70;99.90;;;;;;5071101;28;20194;-65
2020/12/27 10:14:14;;;;;;;17.35;4.82;;;5.70;99.90;;;;;;5070117;28;20201;-65
2020/12/27 10:16:41;;;;;;;25.35;7.40;;;5.60;99.90;;;;;;5073299;28;20221;-66
2020/12/27 10:19:07;;;;;;;18.63;7.32;;;5.60;99.90;;;;;;5073920;28;20217;-64
2020/12/27 10:21:33;;;;;;;12.48;5.15;;;5.60;99.90;;;;;;5074622;28;20189;-64
2020/12/27 10:23:59;;;;;;;16.65;6.35;;;5.60;99.90;;;;;;5074518;28;20189;-65
2020/12/27 10:26:25;;;;;;;18.58;5.75;;;5.50;99.90;;;;;;5066506;28;20252;-64
2020/12/27 10:28:51;;;;;;;26.85;7.20;;;5.50;99.90;;;;;;5073542;28;20178;-64
2020/12/27 10:31:17;;;;;;;19.38;6.53;;;5.50;99.90;;;;;;5073342;28;20542;-64
2020/12/27 10:33:44;;;;;;;26.27;6.07;;;5.50;99.90;;;;;;5073383;28;20534;-64
2020/12/27 10:36:10;;;;;;;19.33;5.13;;;5.50;99.90;;;;;;5072695;28;20642;-64
2020/12/27 10:38:36;;;;;;;32.63;6.68;;;5.40;99.90;;;;;;5070921;28;20209;-63
2020/12/27 10:41:02;;;;;;;29.35;9.32;;;5.40;99.90;;;;;;5071440;28;20532;-64
2020/12/27 10:43:28;;;;;;;20.50;5.95;;;5.40;99.90;;;;;;5072062;28;20182;-64
2020/12/27 10:46:01;;;;;;;15.98;6.63;;;5.40;99.90;;;;;;5073355;28;20182;-63
2020/12/27 10:48:27;;;;;;;16.23;5.82;;;5.30;99.90;;;;;;5072198;28;20174;-65
2020/12/27 10:50:53;;;;;;;17.85;5.43;;;5.20;99.90;;;;;;5073570;28;20185;-63
2020/12/27 10:53:20;;;;;;;12.82;5.63;;;5.20;99.90;;;;;;5074014;28;20178;-64
2020/12/27 10:55:49;;;;;;;19.70;5.22;;;5.10;99.90;;;;;;5072886;28;20193;-64
2020/12/27 10:58:15;;;;;;;16.10;4.75;;;5.10;99.90;;;;;;5072708;28;20241;-63
2020/12/27 11:00:43;;;;;;;14.43;4.93;;;5.00;99.90;;;;;;5071831;28;20562;-63
2020/12/27 11:03:09;;;;;;;17.30;4.95;;;4.90;99.90;;;;;;5072008;28;20182;-63
2020/12/27 11:05:35;;;;;;;20.73;4.85;;;4.80;99.90;;;;;;5071146;28;20182;-63
2020/12/27 11:08:01;;;;;;;12.85;4.03;;;4.80;99.90;;;;;;5070781;28;20660;-63
2020/12/27 11:10:28;;;;;;;21.60;4.95;;;4.70;99.90;;;;;;5073544;28;20208;-63
2020/12/27 11:12:54;;;;;;;13.88;3.78;;;4.70;99.90;;;;;;5073987;28;20179;-64
2020/12/27 11:15:20;;;;;;;9.95;3.85;;;4.70;99.90;;;;;;5073893;28;20181;-64
2020/12/27 11:17:46;;;;;;;11.30;5.20;;;4.60;99.90;;;;;;5073376;28;20213;-63
2020/12/27 11:20:13;;;;;;;16.58;4.28;;;4.60;99.90;;;;;;5073380;28;20213;-63
2020/12/27 11:22:40;;;;;;;13.48;5.28;;;4.60;99.90;;;;;;5072902;28;20167;-64
2020/12/27 11:25:07;;;;;;;12.20;4.03;;;4.50;99.90;;;;;;5073057;28;20189;-63
2020/12/27 11:27:33;;;;;;;11.32;4.78;;;4.50;99.90;;;;;;5072942;28;20669;-63
2020/12/27 11:30:00;;;;;;;13.25;4.15;;;4.50;99.90;;;;;;5073160;28;20541;-63
2020/12/27 11:32:27;;;;;;;16.30;4.32;;;4.40;99.90;;;;;;5072718;28;20801;-63
2020/12/27 11:34:54;;;;;;;8.77;4.18;;;4.40;99.90;;;;;;5070698;28;20645;-66
2020/12/27 11:37:20;;;;;;;14.68;4.68;;;4.30;99.90;;;;;;5070556;28;20200;-66
2020/12/27 11:39:46;;;;;;;15.15;4.63;;;4.30;99.90;;;;;;5067617;28;20214;-62
2020/12/27 11:42:12;;;;;;;14.18;4.70;;;4.30;99.90;;;;;;5072433;28;20533;-63
2020/12/27 11:44:39;;;;;;;12.55;3.70;;;4.30;99.90;;;;;;5064687;28;20178;-64
2020/12/27 11:47:05;;;;;;;10.38;4.00;;;4.30;99.90;;;;;;5073530;28;20481;-63
2020/12/27 11:49:31;;;;;;;11.25;4.88;;;4.30;99.90;;;;;;5072493;28;20174;-63
2020/12/27 11:51:58;;;;;;;17.25;4.80;;;4.30;99.90;;;;;;5072406;28;20178;-64
2020/12/27 11:54:24;;;;;;;11.38;5.03;;;4.20;99.90;;;;;;5071310;28;20189;-64
2020/12/27 11:56:54;;;;;;;10.70;3.97;;;4.10;99.90;;;;;;5072541;28;20209;-63
2020/12/27 11:59:21;;;;;;;11.63;4.85;;;4.10;99.90;;;;;;5072539;28;20196;-63
2020/12/27 12:01:47;;;;;;;16.67;4.13;;;4.10;99.90;;;;;;5072003;28;20174;-64
2020/12/27 12:04:13;;;;;;;11.60;4.07;;;4.00;99.90;;;;;;5072264;28;20185;-63
2020/12/27 12:06:40;;;;;;;9.40;3.83;;;4.00;99.90;;;;;;5071245;28;20181;-64
2020/12/27 12:09:06;;;;;;;8.63;4.47;;;4.00;99.90;;;;;;5068336;28;20556;-63
2020/12/27 12:11:33;;;;;;;10.63;3.70;;;3.90;99.90;;;;;;5072102;28;20178;-64
2020/12/27 12:13:59;;;;;;;9.18;3.97;;;3.80;99.90;;;;;;5071438;28;20209;-63
2020/12/27 12:16:25;;;;;;;7.88;3.40;;;3.80;99.90;;;;;;5072018;28;20682;-64
2020/12/27 12:18:52;;;;;;;10.73;3.72;;;3.70;99.90;;;;;;5070762;28;20668;-64
2020/12/27 12:21:18;;;;;;;8.50;3.80;;;3.70;99.90;;;;;;5071158;28;20209;-65
2020/12/27 12:23:44;;;;;;;12.73;5.72;;;3.60;99.90;;;;;;5071689;28;20197;-64
2020/12/27 12:26:10;;;;;;;9.23;3.60;;;3.50;99.90;;;;;;5072316;28;20182;-64
2020/12/27 12:28:36;;;;;;;7.10;3.53;;;3.50;99.90;;;;;;5071638;28;20626;-65
2020/12/27 12:31:03;;;;;;;11.70;3.83;;;3.40;99.90;;;;;;5072320;28;20182;-64
2020/12/27 12:33:29;;;;;;;8.48;3.85;;;3.40;99.90;;;;;;5072426;28;20197;-64
2020/12/27 12:35:55;;;;;;;12.10;4.40;;;3.30;99.90;;;;;;5071121;28;20389;-63
2020/12/27 12:38:21;;;;;;;16.88;4.07;;;3.20;99.90;;;;;;5065980;28;20561;-64
2020/12/27 12:40:47;;;;;;;13.02;4.22;;;3.20;99.90;;;;;;5071165;28;20685;-65
2020/12/27 12:43:13;;;;;;;10.13;3.83;;;3.20;99.90;;;;;;5071603;28;20188;-64
2020/12/27 12:45:39;;;;;;;10.25;3.92;;;3.20;99.90;;;;;;5072192;28;20194;-65
2020/12/27 12:48:05;;;;;;;7.72;4.03;;;3.10;99.90;;;;;;5072112;28;20178;-64
2020/12/27 12:50:32;;;;;;;18.63;6.00;;;3.00;99.90;;;;;;5072225;28;20192;-65
2020/12/27 12:52:58;;;;;;;11.15;4.72;;;3.00;99.90;;;;;;5071875;28;20177;-66
2020/12/27 12:55:24;;;;;;;11.25;4.25;;;3.00;99.90;;;;;;5072158;28;20170;-65
2020/12/27 12:57:50;;;;;;;8.27;3.78;;;3.00;99.90;;;;;;5070762;28;20178;-65
2020/12/27 13:00:16;;;;;;;11.15;4.38;;;2.90;99.90;;;;;;5071455;28;20225;-65
2020/12/27 13:02:42;;;;;;;9.48;4.10;;;2.90;99.90;;;;;;5069638;28;20198;-63